Portada
METAR-TAF:

METAR-TAF

Aeroports :

Villacoublay, França

latitud: 48-46N, longitud: 002-12E, altitud: 177 m

Observació

L'informe es va fer fa 44 minuts, a les 20:00 UTC
Vent 9 kt del Est/Nord-Est
Temperatura 19°C
Humitat 37%
Pressió 1021 hPa
Visibilitat 10 km o més
sense núvols per sota de 1500 mi sense presència de cumulonimbus.

METAR: LFPV 292000Z AUTO 06009KT CAVOK 19/04 Q1021 NOSIG

Hora: 22:44 (20:44 UTC)

Pronòstic

L'informe es va fer fa 6 hores i 44 minuts, a les 14:00 UTC
Pronòstic vàlid del 29 a les 15 UTC al 30 a les 15 UTC
Vent 8 kt del Est/Nord-Est
Visibilitat 10 km o més
sense núvols per sota de 1500 mi sense presència de cumulonimbus.
Temporalment
l' 29 a les 15 UTC al 29 a les 18 UTC
Vent 10 kt del Est/Nord-Est amb ràfegues de 20 kt
Temporalment
l' 30 a les 12 UTC al 30 a les 15 UTC
Vent 10 kt del Est amb ràfegues de 20 kt

TAF: LFPV 291400Z 2915/3015 07008KT CAVOK TEMPO 2915/2918 07010G20KT TEMPO 3012/3015 09010G20KT

Observacions i pronòstics meteorològics de més de 4000 aeroports (METAR i TAF).

Les estacions disponibles són els punts grocs i vermells al mapa.

Posi el ratolí al punt desitjat per veure el nom de l'estació.

Feu clic per veure les observacions i els pronòstics meteorològics.

Per canviar el mapa: feu clic els botons verds amb una creu de color negre per apropar; al botó verd amb un guió per allunyar la imatge; o en les fletxes verdes per a mapes adjacents.


METAR-TAF: